Time;durP1;ratioP1;P1;durP2;ratioP2;P2;SDS_P1;SDS_P2;PMS_P1;PMS_P2;Temp;Humidity;BMP_temperature;BMP_pressure;BME280_temperature;BME280_humidity;BME280_pressure;Samples;Min_cycle;Max_cycle;Signal;HPM_P1;HPM_P2
2022/09/04 00:00:07;;;;;;;4.18;1.90;;;;;;;15.32;76.44;100782.63;5198863;28;20580;-77
2022/09/04 00:03:05;;;;;;;3.95;1.80;;;;;;;15.18;77.60;100787.72;5205064;28;20106;-77
2022/09/04 00:05:54;;;;;;;3.25;1.58;;;;;;;15.15;77.24;100787.88;5205741;28;20026;-75
2022/09/04 00:08:58;;;;;;;4.05;1.88;;;;;;;15.20;77.05;100796.38;5205721;28;20117;-77
2022/09/04 00:11:32;;;;;;;3.30;1.80;;;;;;;15.00;78.86;100793.91;5205018;28;20025;-77
2022/09/04 00:14:13;;;;;;;4.97;1.90;;;;;;;15.14;78.29;100791.44;5208399;28;20032;-77
2022/09/04 00:16:58;;;;;;;5.80;1.90;;;;;;;15.07;78.17;100790.06;5205786;28;20041;-79
2022/09/04 00:19:39;;;;;;;3.78;1.90;;;;;;;15.35;77.01;100789.53;5189036;28;20136;-77
2022/09/04 00:22:30;;;;;;;4.50;1.95;;;;;;;15.53;75.95;100791.22;5207000;28;20031;-77
2022/09/04 00:25:19;;;;;;;5.85;1.92;;;;;;;15.47;76.56;100788.88;5207247;28;20025;-77
2022/09/04 00:28:12;;;;;;;3.65;1.70;;;;;;;15.67;75.86;100796.59;5204882;28;20033;-77
2022/09/04 00:30:54;;;;;;;6.00;2.03;;;;;;;15.65;75.50;100795.81;5180656;28;20108;-77
2022/09/04 00:33:58;;;;;;;4.60;1.67;;;;;;;15.62;75.86;100804.75;5206823;28;20036;-78
2022/09/04 00:36:29;;;;;;;6.22;2.13;;;;;;;15.60;76.13;100800.47;5205374;28;20021;-77
2022/09/04 00:39:09;;;;;;;5.43;2.00;;;;;;;15.63;76.53;100811.72;5189296;28;20029;-77
2022/09/04 00:42:09;;;;;;;4.95;1.95;;;;;;;15.62;76.17;100811.78;5210541;28;20029;-78
2022/09/04 00:45:11;;;;;;;4.40;1.70;;;;;;;15.48;76.57;100807.25;5205724;28;20087;-78
2022/09/04 00:48:03;;;;;;;5.03;2.03;;;;;;;15.37;77.31;100811.38;5207051;28;20056;-78
2022/09/04 00:51:06;;;;;;;4.78;1.75;;;;;;;15.34;77.31;100812.38;5187311;28;20033;-78
2022/09/04 00:53:59;;;;;;;3.08;1.85;;;;;;;15.17;78.23;100811.50;5181172;28;20380;-76
2022/09/04 00:56:51;;;;;;;4.68;2.20;;;;;;;15.04;79.43;100821.78;5205949;28;20050;-77
2022/09/04 01:00:05;;;;;;;4.05;2.08;;;;;;;15.08;79.37;100814.59;5211245;28;20021;-77
2022/09/04 01:02:47;;;;;;;5.82;2.20;;;;;;;15.12;78.32;100813.50;5208398;28;20108;-77
2022/09/04 01:05:55;;;;;;;3.25;1.85;;;;;;;14.99;79.17;100813.25;5230155;22;20107;-72
2022/09/04 01:09:00;;;;;;;4.90;2.00;;;;;;;15.05;78.97;100815.56;5206843;28;20437;-72
2022/09/04 01:11:33;;;;;;;5.80;2.15;;;;;;;14.99;80.14;100809.78;5204320;28;20033;-72
2022/09/04 01:14:17;;;;;;;4.45;1.92;;;;;;;15.00;79.45;100819.38;5210611;28;20600;-72
2022/09/04 01:17:16;;;;;;;3.88;2.03;;;;;;;14.86;79.62;100821.84;5187901;28;20029;-72
2022/09/04 01:20:05;;;;;;;5.50;2.40;;;;;;;14.46;82.20;100813.31;5188093;28;20257;-72
2022/09/04 01:23:23;;;;;;;3.50;1.85;;;;;;;14.60;81.11;100824.88;5180936;28;20018;-72
2022/09/04 01:26:00;;;;;;;4.55;1.73;;;;;;;14.11;83.26;100825.44;5182034;28;20800;-72
2022/09/04 01:29:09;;;;;;;5.03;1.80;;;;;;;13.98;84.09;100819.03;5181637;28;20107;-72
2022/09/04 01:32:00;;;;;;;3.72;1.83;;;;;;;13.75;85.68;100810.50;5185668;28;20026;-72
2022/09/04 01:35:01;;;;;;;3.17;2.00;;;;;;;14.13;83.26;100807.84;5166170;28;20112;-72
2022/09/04 01:37:46;;;;;;;5.30;2.20;;;;;;;13.85;82.73;100812.63;5182766;28;20109;-72
2022/09/04 01:40:34;;;;;;;5.43;2.10;;;;;;;13.67;84.63;100817.84;5169245;28;20040;-72
2022/09/04 01:43:10;;;;;;;4.72;2.03;;;;;;;13.93;82.78;100809.66;5184685;28;20056;-72
2022/09/04 01:46:03;;;;;;;4.80;2.08;;;;;;;13.85;82.45;100812.63;5186796;28;20072;-72
2022/09/04 01:48:49;;;;;;;3.70;1.83;;;;;;;13.61;85.31;100808.44;5183247;28;20491;-72
2022/09/04 01:51:26;;;;;;;5.00;2.00;;;;;;;13.67;85.81;100815.22;5187669;28;20038;-72
2022/09/04 01:54:10;;;;;;;4.18;1.80;;;;;;;13.54;86.08;100816.69;5179143;28;20073;-72
2022/09/04 01:56:53;;;;;;;5.43;2.33;;;;;;;13.58;86.96;100821.72;5174357;28;20045;-72
2022/09/04 01:59:40;;;;;;;5.18;2.33;;;;;;;13.95;85.00;100828.84;5188169;28;20038;-72
2022/09/04 02:02:33;;;;;;;3.97;2.00;;;;;;;14.02;83.66;100817.09;5186002;28;20030;-71
2022/09/04 02:05:22;;;;;;;4.15;1.80;;;;;;;14.07;84.26;100823.03;5171210;28;20053;-72
2022/09/04 02:08:14;;;;;;;3.75;2.30;;;;;;;13.95;84.81;100826.22;5187797;28;20026;-72
2022/09/04 02:11:07;;;;;;;5.93;2.15;;;;;;;13.95;84.82;100832.31;5186806;28;20403;-72
2022/09/04 02:14:14;;;;;;;4.82;2.00;;;;;;;14.06;83.64;100837.09;5185445;28;20394;-72
2022/09/04 02:16:55;;;;;;;4.45;1.77;;;;;;;14.39;82.56;100833.78;5185900;28;20022;-72
2022/09/04 02:19:47;;;;;;;7.78;2.80;;;;;;;14.27;82.47;100831.72;5185125;28;20030;-72
2022/09/04 02:22:27;;;;;;;5.35;2.13;;;;;;;14.35;82.51;100834.00;5186471;28;20064;-72
2022/09/04 02:25:40;;;;;;;3.17;1.80;;;;;;;14.15;83.13;100834.91;5175280;28;20116;-73
2022/09/04 02:28:28;;;;;;;4.03;2.10;;;;;;;14.11;83.58;100835.09;5174870;28;20094;-72
2022/09/04 02:31:12;;;;;;;4.05;2.22;;;;;;;14.23;83.04;100839.84;5182446;28;20113;-72
2022/09/04 02:34:07;;;;;;;4.97;2.13;;;;;;;14.25;82.56;100836.19;5189927;28;20025;-72
2022/09/04 02:36:58;;;;;;;6.15;2.05;;;;;;;14.14;81.91;100837.59;5187050;28;20036;-72
2022/09/04 02:39:59;;;;;;;4.25;2.17;;;;;;;14.15;82.43;100844.53;5185625;28;20044;-72
2022/09/04 02:42:39;;;;;;;5.95;2.40;;;;;;;14.17;82.50;100845.38;5186320;28;20547;-72
2022/09/04 02:45:21;;;;;;;4.70;2.28;;;;;;;14.22;81.92;100846.88;5190558;28;20022;-72
2022/09/04 02:48:12;;;;;;;6.03;2.15;;;;;;;14.32;82.07;100842.03;5191723;28;20022;-72
2022/09/04 02:50:45;;;;;;;5.50;2.13;;;;;;;14.33;81.68;100841.09;5189748;28;20109;-72
2022/09/04 02:53:29;;;;;;;4.82;2.30;;;;;;;14.27;81.25;100854.53;5184956;28;20017;-72
2022/09/04 02:56:24;;;;;;;4.65;2.20;;;;;;;14.24;81.67;100857.31;5178849;28;20026;-72
2022/09/04 02:59:13;;;;;;;7.05;2.30;;;;;;;14.16;81.26;100852.41;5191567;28;20031;-72
2022/09/04 03:01:58;;;;;;;4.60;2.33;;;;;;;13.93;82.89;100857.78;5189402;28;20029;-72
2022/09/04 03:04:48;;;;;;;3.90;2.30;;;;;;;13.74;84.92;100859.53;5185475;28;20036;-72
2022/09/04 03:07:31;;;;;;;6.60;2.35;;;;;;;13.69;84.53;100869.41;5189274;28;20025;-72
2022/09/04 03:10:08;;;;;;;5.43;2.20;;;;;;;13.58;85.95;100870.78;5186160;28;20391;-72
2022/09/04 03:12:47;;;;;;;5.85;2.53;;;;;;;13.66;84.76;100869.53;5173784;28;20021;-72
2022/09/04 03:15:39;;;;;;;4.65;2.28;;;;;;;13.63;84.54;100859.16;5192015;28;20033;-72
2022/09/04 03:18:13;;;;;;;5.82;2.42;;;;;;;13.62;85.25;100860.09;5186801;28;20573;-72
2022/09/04 03:21:19;;;;;;;6.15;2.47;;;;;;;13.44;86.05;100867.91;5190792;28;20071;-72
2022/09/04 03:23:54;;;;;;;6.00;2.50;;;;;;;13.47;85.86;100854.63;5151843;28;20030;-72
2022/09/04 03:26:49;;;;;;;4.65;2.38;;;;;;;13.43;86.32;100855.69;5179775;28;20076;-72
2022/09/04 03:29:30;;;;;;;5.35;2.45;;;;;;;13.40;86.00;100858.44;5186732;28;20030;-72
2022/09/04 03:32:31;;;;;;;4.85;2.35;;;;;;;13.32;86.75;100863.16;5185876;28;20448;-72
2022/09/04 03:35:24;;;;;;;4.85;2.40;;;;;;;13.45;85.96;100851.22;5185934;28;20029;-72
2022/09/04 03:38:03;;;;;;;5.55;2.67;;;;;;;13.51;86.78;100850.94;5170024;28;20030;-72
2022/09/04 03:41:01;;;;;;;5.63;2.20;;;;;;;13.66;85.76;100858.16;5185618;28;20273;-72
2022/09/04 03:43:58;;;;;;;5.80;2.78;;;;;;;13.61;86.15;100854.88;5185570;28;20396;-72
2022/09/04 03:46:41;;;;;;;7.15;2.60;;;;;;;13.47;86.95;100858.13;5176575;28;20044;-72
2022/09/04 03:49:37;;;;;;;4.90;2.55;;;;;;;13.56;86.76;100862.13;5167403;28;20061;-72
2022/09/04 03:52:34;;;;;;;5.63;2.50;;;;;;;13.74;85.37;100864.78;5146837;28;20793;-72
2022/09/04 03:55:23;;;;;;;;;;;;;;;13.74;85.18;100871.84;5180795;28;20022;-72
2022/09/04 03:58:17;;;;;;;7.85;2.60;;;;;;;13.67;85.52;100871.25;5187967;28;19979;-72
2022/09/04 04:01:11;;;;;;;4.95;2.60;;;;;;;13.69;85.42;100873.78;5189481;28;20025;-72
2022/09/04 04:03:51;;;;;;;5.53;2.63;;;;;;;13.74;85.11;100871.84;5188461;28;20034;-72
2022/09/04 04:06:47;;;;;;;6.00;2.42;;;;;;;13.66;85.48;100868.66;5188560;28;20022;-72
2022/09/04 04:09:20;;;;;;;5.93;2.42;;;;;;;13.68;85.23;100869.44;5189630;28;20131;-72
2022/09/04 04:12:02;;;;;;;5.80;2.58;;;;;;;13.40;86.62;100869.78;5188931;28;20036;-72
2022/09/04 04:14:44;;;;;;;5.13;2.50;;;;;;;13.51;86.66;100869.31;5185377;28;20039;-73
2022/09/04 04:17:18;;;;;;;6.40;2.40;;;;;;;13.58;86.18;100869.00;5178840;28;20113;-72
2022/09/04 04:20:04;;;;;;;6.15;2.38;;;;;;;13.69;85.87;100881.66;5181941;28;20040;-72
2022/09/04 04:22:53;;;;;;;;;;;;;;;13.74;84.02;100885.81;5181965;28;20361;-72
2022/09/04 04:25:59;;;;;;;4.95;2.58;;;;;;;13.24;88.08;100891.50;5185991;28;19921;-72
2022/09/04 04:28:58;;;;;;;4.82;2.75;;;;;;;13.06;89.24;100893.09;5184477;28;20847;-72
2022/09/04 04:32:09;;;;;;;6.00;2.90;;;;;;;13.36;87.57;100888.34;5183648;28;20033;-72
2022/09/04 04:35:15;;;;;;;4.95;2.25;;;;;;;13.14;88.59;100896.28;5186239;28;20079;-72
2022/09/04 04:38:10;;;;;;;7.05;2.65;;;;;;;13.04;89.72;100905.44;5187318;28;20647;-72
2022/09/04 04:40:52;;;;;;;5.10;2.40;;;;;;;13.13;89.53;100909.44;5169665;28;20030;-72
2022/09/04 04:43:30;;;;;;;8.38;2.78;;;;;;;13.16;88.49;100917.19;5188055;28;20030;-72
2022/09/04 04:46:12;;;;;;;4.35;2.20;;;;;;;13.30;88.51;100917.50;5183795;28;20432;-73
2022/09/04 04:48:48;;;;;;;5.32;2.42;;;;;;;13.24;89.52;100923.00;5185454;28;20025;-73
2022/09/04 04:51:41;;;;;;;5.35;2.50;;;;;;;13.41;88.30;100926.63;5189235;28;20026;-72
2022/09/04 04:54:21;;;;;;;4.20;2.45;;;;;;;13.31;89.38;100927.94;5186209;28;20499;-73
2022/09/04 04:57:07;;;;;;;10.07;2.67;;;;;;;13.18;89.97;100931.09;5188883;28;20518;-73
2022/09/04 05:00:05;;;;;;;6.40;2.50;;;;;;;13.55;85.69;100931.31;5185798;28;20022;-72
2022/09/04 05:02:52;;;;;;;7.05;2.70;;;;;;;13.52;85.33;100934.94;5185419;28;20025;-72
2022/09/04 05:05:28;;;;;;;;;;;;;;;13.42;84.85;100943.25;5188122;28;20108;-72
2022/09/04 05:08:08;;;;;;;6.75;2.45;;;;;;;13.01;89.55;100947.53;5182942;28;19917;-72
2022/09/04 05:11:09;;;;;;;6.03;2.58;;;;;;;12.81;90.80;100951.81;5189864;28;20029;-72
2022/09/04 05:13:56;;;;;;;5.43;2.83;;;;;;;12.96;90.76;100956.50;5168687;28;20033;-72
2022/09/04 05:16:59;;;;;;;5.45;2.75;;;;;;;13.14;89.61;100958.41;5182481;28;20025;-72
2022/09/04 05:19:36;;;;;;;6.63;2.83;;;;;;;13.08;91.47;100958.66;5180956;28;20057;-72
2022/09/04 05:22:38;;;;;;;6.15;2.53;;;;;;;13.21;92.21;100952.84;5188225;28;20053;-73
2022/09/04 05:25:32;;;;;;;6.38;2.55;;;;;;;13.51;90.00;100955.97;5178905;28;20109;-72
2022/09/04 05:28:19;;;;;;;5.45;2.45;;;;;;;13.48;91.18;100964.00;5182388;28;20022;-72
2022/09/04 05:31:11;;;;;;;4.35;2.42;;;;;;;13.62;90.90;100970.41;5187687;28;20026;-72
2022/09/04 05:33:57;;;;;;;7.70;2.83;;;;;;;13.70;90.04;100970.06;5187215;28;20057;-73
2022/09/04 05:36:39;;;;;;;;;;;;;;;13.66;89.25;100981.63;5183284;28;20038;-73
2022/09/04 05:39:29;;;;;;;4.78;2.35;;;;;;;14.29;86.06;100981.53;5189091;28;20353;-73
2022/09/04 05:42:18;;;;;;;4.78;2.25;;;;;;;14.48;85.27;100977.16;5183677;28;20428;-72
2022/09/04 05:44:56;;;;;;;5.22;2.60;;;;;;;14.54;85.64;100980.38;5187637;28;20057;-72
2022/09/04 05:47:49;;;;;;;5.78;2.42;;;;;;;14.54;87.03;100993.53;5181736;28;20659;-73
2022/09/04 05:50:19;;;;;;;4.85;2.38;;;;;;;14.78;84.46;100992.38;5187372;28;20322;-73
2022/09/04 05:53:00;;;;;;;4.32;2.22;;;;;;;15.06;82.27;100991.06;5184350;28;20104;-73
2022/09/04 05:56:08;;;;;;;7.25;2.20;;;;;;;14.97;84.31;100996.75;5181218;28;20028;-72
2022/09/04 05:59:09;;;;;;;4.88;2.70;;;;;;;15.14;82.45;100995.94;5183745;28;20028;-73
2022/09/04 06:02:04;;;;;;;5.32;2.58;;;;;;;15.22;83.80;100986.75;5186246;28;20030;-72
2022/09/04 06:04:56;;;;;;;9.10;2.70;;;;;;;15.12;83.18;100993.41;5185311;28;20061;-72
2022/09/04 06:07:39;;;;;;;5.43;2.60;;;;;;;15.02;84.97;100992.09;5182962;28;20030;-72
2022/09/04 06:10:35;;;;;;;5.88;3.05;;;;;;;14.97;85.77;101002.00;5192081;28;20025;-72
2022/09/04 06:13:08;;;;;;;5.22;2.67;;;;;;;15.16;84.75;100999.38;5188716;28;20030;-72
2022/09/04 06:16:04;;;;;;;5.50;2.72;;;;;;;15.02;83.87;101002.63;5192494;28;20029;-72
2022/09/04 06:19:18;;;;;;;5.50;2.60;;;;;;;15.13;83.14;101010.03;5162934;28;20037;-72
2022/09/04 06:21:51;;;;;;;6.45;3.15;;;;;;;15.15;85.25;101006.41;5180390;28;20042;-72
2022/09/04 06:25:00;;;;;;;4.93;2.83;;;;;;;15.50;84.25;101012.66;5180567;28;20583;-72
2022/09/04 06:27:54;;;;;;;5.72;2.72;;;;;;;15.68;83.58;101015.25;5172117;28;20125;-72
2022/09/04 06:30:34;;;;;;;5.80;2.85;;;;;;;16.12;80.80;101016.50;5184644;28;20075;-72
2022/09/04 06:33:13;;;;;;;6.18;2.78;;;;;;;16.16;79.78;101012.78;5187710;28;20136;-72
2022/09/04 06:36:09;;;;;;;6.05;2.78;;;;;;;16.20;80.10;101026.66;5191674;28;20030;-72
2022/09/04 06:38:45;;;;;;;5.22;2.63;;;;;;;16.49;80.54;101013.69;5193880;28;20171;-72
2022/09/04 06:42:12;;;;;;;4.78;2.70;;;;;;;16.65;80.55;101014.59;5192576;28;20025;-73
2022/09/04 06:45:19;;;;;;;8.20;2.75;;;;;;;16.86;79.39;101010.78;5096160;29;20110;-72
2022/09/04 06:48:19;;;;;;;5.50;2.92;;;;;;;17.10;79.23;101018.22;5182795;28;20124;-73
2022/09/04 06:51:20;;;;;;;4.80;2.53;;;;;;;18.57;74.31;101022.81;5185732;28;20036;-73
2022/09/04 06:54:08;;;;;;;5.13;2.70;;;;;;;18.23;74.39;101022.22;5184248;28;20034;-73
2022/09/04 06:57:06;;;;;;;7.25;2.85;;;;;;;18.13;74.88;101021.94;5189684;28;20095;-73
2022/09/04 06:59:57;;;;;;;5.93;2.70;;;;;;;19.10;72.99;101013.19;5191115;28;20037;-73
2022/09/04 07:02:47;;;;;;;4.88;2.65;;;;;;;21.82;66.44;101013.59;5186310;28;20034;-74
2022/09/04 07:05:39;;;;;;;5.82;2.53;;;;;;;23.90;61.18;101015.50;5218892;22;20049;-71
2022/09/04 07:08:49;;;;;;;4.30;2.35;;;;;;;25.03;58.71;100999.31;5186795;28;20048;-76
2022/09/04 07:11:44;;;;;;;3.92;2.60;;;;;;;25.70;56.01;101006.53;5210023;28;20033;-76
2022/09/04 07:14:34;;;;;;;4.22;1.95;;;;;;;27.64;53.52;101002.03;5191136;28;20029;-76
2022/09/04 07:17:20;;;;;;;5.82;2.55;;;;;;;27.34;52.96;101010.44;5204969;28;20323;-76
2022/09/04 07:20:07;;;;;;;4.80;2.78;;;;;;;28.08;50.84;101007.34;5206865;28;20029;-77
2022/09/04 07:22:37;;;;;;;3.80;2.40;;;;;;;28.35;50.24;101009.97;5204294;28;20417;-76
2022/09/04 07:25:10;;;;;;;4.90;2.60;;;;;;;29.84;48.84;100998.34;5202626;28;20072;-75
2022/09/04 07:28:13;;;;;;;4.28;2.30;;;;;;;29.75;48.87;101003.91;5210342;28;20104;-74
2022/09/04 07:30:51;;;;;;;4.30;2.53;;;;;;;26.37;52.93;101022.63;5144758;28;20177;-75
2022/09/04 07:33:34;;;;;;;5.50;2.30;;;;;;;28.39;50.39;101014.03;5208736;28;20112;-75
2022/09/04 07:36:20;;;;;;;7.25;2.58;;;;;;;29.57;49.09;101006.72;5207075;28;20124;-72
2022/09/04 07:39:04;;;;;;;7.53;3.10;;;;;;;26.65;53.70;101021.75;5208987;28;20021;-75
2022/09/04 07:41:56;;;;;;;4.55;2.55;;;;;;;29.40;48.92;101009.53;5207643;28;20112;-73
2022/09/04 07:44:48;;;;;;;3.78;2.50;;;;;;;28.23;51.66;101013.88;5209006;28;20167;-75
2022/09/04 07:47:30;;;;;;;8.73;2.72;;;;;;;28.29;51.64;101018.63;5175783;28;20028;-77
2022/09/04 07:50:17;;;;;;;7.20;2.90;;;;;;;27.74;52.28;101017.13;5205902;28;20567;-76
2022/09/04 07:53:18;;;;;;;6.20;2.90;;;;;;;27.35;52.65;101012.97;5205881;28;20464;-76
2022/09/04 07:55:51;;;;;;;6.40;2.72;;;;;;;29.14;50.45;101009.59;5203231;28;20031;-75
2022/09/04 07:58:45;;;;;;;6.03;2.40;;;;;;;27.71;51.92;101022.81;5203336;28;20045;-75
2022/09/04 08:01:27;;;;;;;6.70;2.67;;;;;;;27.88;52.82;101016.59;5186877;28;20294;-75
2022/09/04 08:04:01;;;;;;;7.35;3.00;;;;;;;28.53;51.51;101008.06;5203748;28;20486;-76
2022/09/04 08:06:48;;;;;;;5.20;2.75;;;;;;;28.19;51.28;101011.63;5207627;28;20406;-74
2022/09/04 08:09:56;;;;;;;7.47;2.90;;;;;;;28.78;50.12;101015.28;5211268;28;20086;-75
2022/09/04 08:12:45;;;;;;;9.55;3.05;;;;;;;29.52;50.05;101008.22;5205627;28;20088;-75
2022/09/04 08:15:46;;;;;;;6.03;2.70;;;;;;;28.28;51.41;101019.63;5210118;28;20025;-76
2022/09/04 08:18:27;;;;;;;6.70;2.40;;;;;;;28.20;50.95;101019.56;5199344;28;20025;-75
2022/09/04 08:21:25;;;;;;;4.13;2.33;;;;;;;29.80;49.60;101009.63;5201179;28;20029;-75
2022/09/04 08:24:33;;;;;;;4.43;2.42;;;;;;;30.30;48.82;101013.91;5206720;28;20029;-76
2022/09/04 08:27:13;;;;;;;4.65;2.53;;;;;;;30.15;48.56;101012.91;5203383;28;20083;-76
2022/09/04 08:29:44;;;;;;;5.05;2.67;;;;;;;30.18;48.62;101022.50;5201693;28;20120;-76
2022/09/04 08:32:32;;;;;;;6.05;2.45;;;;;;;29.68;48.96;101022.59;5204610;28;20056;-76
2022/09/04 08:35:06;;;;;;;6.80;2.63;;;;;;;28.02;52.04;101040.25;5187284;28;20064;-75
2022/09/04 08:38:01;;;;;;;5.00;2.90;;;;;;;29.50;50.38;101037.19;5201467;28;20021;-75
2022/09/04 08:40:46;;;;;;;6.43;2.72;;;;;;;27.15;53.57;101043.63;5201879;28;20033;-76
2022/09/04 08:43:27;;;;;;;5.65;2.80;;;;;;;29.15;50.17;101040.06;5185322;28;20036;-76
2022/09/04 08:46:19;;;;;;;5.53;2.58;;;;;;;28.14;51.16;101052.44;5202985;28;20023;-76
2022/09/04 08:49:18;;;;;;;5.70;2.50;;;;;;;28.28;51.31;101062.66;5190173;28;20032;-76
2022/09/04 08:52:00;;;;;;;4.70;2.70;;;;;;;31.18;46.75;101047.00;5203077;28;20028;-76
2022/09/04 08:55:28;;;;;;;3.45;2.17;;;;;;;30.84;47.96;101049.09;5183959;28;20052;-76
2022/09/04 08:58:19;;;;;;;6.28;2.60;;;;;;;30.49;48.32;101059.44;5114861;29;20656;-76
2022/09/04 09:01:08;;;;;;;4.22;2.33;;;;;;;30.51;48.13;101062.81;5116372;28;20050;-75
2022/09/04 09:04:16;;;;;;;7.57;2.85;;;;;;;30.00;49.05;101070.31;5182340;28;20026;-76
2022/09/04 09:07:04;;;;;;;4.68;2.30;;;;;;;30.02;49.67;101065.59;5189002;28;20985;-76
2022/09/04 09:09:53;;;;;;;6.82;2.65;;;;;;;29.53;49.16;101069.19;5196962;28;20061;-75
2022/09/04 09:12:23;;;;;;;5.55;2.75;;;;;;;29.87;49.29;101065.44;5200747;28;20091;-76
2022/09/04 09:15:21;;;;;;;4.35;2.75;;;;;;;29.54;50.78;101065.53;5206864;28;20025;-76
2022/09/04 09:18:20;;;;;;;5.35;2.55;;;;;;;30.25;50.16;101061.28;5187547;28;20814;-76
2022/09/04 09:21:31;;;;;;;4.88;2.65;;;;;;;29.96;48.97;101063.59;5176273;28;20029;-75
2022/09/04 09:24:23;;;;;;;5.15;2.30;;;;;;;29.59;49.64;101063.16;5165528;28;20092;-75
2022/09/04 09:27:31;;;;;;;5.00;2.65;;;;;;;28.52;50.46;101072.78;5178286;28;20128;-76
2022/09/04 09:30:07;;;;;;;5.03;2.45;;;;;;;28.60;51.20;101072.84;5179204;28;20033;-75
2022/09/04 09:32:41;;;;;;;7.68;2.50;;;;;;;27.37;53.66;101072.75;5204052;28;20507;-75
2022/09/04 09:35:29;;;;;;;7.28;2.90;;;;;;;27.29;53.32;101071.81;5202185;28;20032;-75
2022/09/04 09:38:44;;;;;;;6.63;2.63;;;;;;;26.24;55.23;101067.66;5180674;28;20457;-76
2022/09/04 09:41:23;;;;;;;7.82;2.55;;;;;;;27.17;53.42;101063.09;5121225;28;20049;-75
2022/09/04 09:44:31;;;;;;;5.07;2.88;;;;;;;25.94;55.99;101065.97;5212173;28;20807;-76
2022/09/04 09:47:16;;;;;;;5.70;2.80;;;;;;;26.63;55.26;101059.44;5199335;28;20068;-76
2022/09/04 09:50:11;;;;;;;4.30;2.35;;;;;;;26.69;54.67;101055.34;5209357;28;20033;-76
2022/09/04 09:53:20;;;;;;;5.28;2.30;;;;;;;26.60;54.95;101051.69;5203168;28;20069;-73
2022/09/04 09:56:06;;;;;;;4.47;2.40;;;;;;;26.25;56.53;101058.63;5209775;28;20029;-76
2022/09/04 09:58:59;;;;;;;10.57;3.22;;;;;;;25.45;56.65;101065.97;5206397;28;20630;-74
2022/09/04 10:01:29;;;;;;;5.53;2.78;;;;;;;25.96;56.72;101069.34;5205351;28;20029;-73
2022/09/04 10:04:39;;;;;;;5.28;2.60;;;;;;;25.25;57.41;101066.03;5197481;28;20407;-76
2022/09/04 10:07:32;;;;;;;5.70;2.35;;;;;;;25.06;58.13;101068.63;5207662;28;20048;-75
2022/09/04 10:10:23;;;;;;;6.55;2.70;;;;;;;25.26;59.31;101059.72;5194358;28;20522;-75
2022/09/04 10:13:48;;;;;;;7.28;2.58;;;;;;;25.53;57.92;101065.28;5198028;28;20036;-76
2022/09/04 10:16:38;;;;;;;4.15;2.40;;;;;;;25.54;58.37;101058.94;5108461;28;20040;-76
2022/09/04 10:20:08;;;;;;;7.03;2.80;;;;;;;25.54;57.71;101053.59;5207603;28;20140;-74
2022/09/04 10:23:03;;;;;;;5.50;2.45;;;;;;;24.90;59.02;101062.91;5113336;28;20042;-76
2022/09/04 10:25:40;;;;;;;5.22;2.78;;;;;;;24.87;59.65;101068.53;5145100;28;20044;-75
2022/09/04 10:28:28;;;;;;;4.97;2.80;;;;;;;24.93;58.54;101063.50;5215097;28;20047;-74
2022/09/04 10:31:31;;;;;;;5.50;2.45;;;;;;;25.24;58.72;101059.00;5213265;28;20025;-75
2022/09/04 10:34:07;;;;;;;7.78;2.70;;;;;;;25.23;58.28;101052.81;5193284;28;20041;-76
2022/09/04 10:37:03;;;;;;;4.90;2.50;;;;;;;25.26;58.06;101046.31;5194243;28;20100;-75
2022/09/04 10:43:23;;;;;;;8.57;2.50;;;;;;;24.95;58.98;101055.34;5209730;28;20489;-76
2022/09/04 10:46:02;;;;;;;7.97;2.60;;;;;;;24.82;59.04;101057.41;5214644;28;20059;-76
2022/09/04 10:49:14;;;;;;;5.47;2.45;;;;;;;25.02;58.60;101052.00;5193086;28;20040;-75
2022/09/04 10:52:10;;;;;;;8.18;2.80;;;;;;;24.93;59.38;101060.81;5176697;28;20044;-74
2022/09/04 10:55:22;;;;;;;4.35;2.50;;;;;;;24.98;59.37;101053.22;5200699;28;20548;-77
2022/09/04 10:58:11;;;;;;;9.55;2.53;;;;;;;24.82;58.97;101054.72;5171801;28;20044;-75
2022/09/04 11:01:11;;;;;;;7.38;2.83;;;;;;;24.86;58.58;101050.78;5202503;28;20022;-76
2022/09/04 11:04:03;;;;;;;5.93;2.38;;;;;;;25.00;60.40;101053.13;5207712;28;20930;-74
2022/09/04 11:06:48;;;;;;;5.10;2.50;;;;;;;25.02;58.57;101053.81;5202318;28;20509;-75
2022/09/04 11:09:18;;;;;;;5.35;2.65;;;;;;;24.89;58.67;101051.38;5201012;28;20045;-74
2022/09/04 11:12:30;;;;;;;5.67;2.50;;;;;;;24.66;58.71;101049.00;5196164;28;20083;-74
2022/09/04 11:15:35;;;;;;;6.05;2.80;;;;;;;24.92;58.84;101047.56;5195656;28;20306;-74
2022/09/04 11:18:44;;;;;;;5.28;2.10;;;;;;;24.78;58.96;101042.59;5187450;28;20654;-74
2022/09/04 11:21:42;;;;;;;6.75;2.47;;;;;;;24.74;59.91;101041.16;5186427;28;20451;-75
2022/09/04 11:24:21;;;;;;;5.20;2.22;;;;;;;24.66;59.04;101043.66;5197587;28;20049;-75
2022/09/04 11:27:28;;;;;;;5.15;2.20;;;;;;;24.54;58.38;101041.19;5187849;28;20072;-76
2022/09/04 11:30:04;;;;;;;4.50;2.33;;;;;;;24.66;59.76;101032.09;5198751;28;20523;-75
2022/09/04 11:32:40;;;;;;;4.35;2.47;;;;;;;24.93;59.19;101038.56;5200212;28;20030;-72
2022/09/04 11:35:35;;;;;;;9.73;2.67;;;;;;;24.69;60.04;101043.38;5189773;28;20418;-74
2022/09/04 11:39:02;;;;;;;5.43;2.30;;;;;;;24.39;59.71;101039.78;5203426;28;20376;-75
2022/09/04 11:41:35;;;;;;;6.25;2.50;;;;;;;24.82;60.48;101038.66;5104424;29;20059;-75
2022/09/04 11:44:21;;;;;;;4.68;2.22;;;;;;;24.94;59.87;101032.25;5108258;29;20039;-75
2022/09/04 11:47:02;;;;;;;8.27;2.28;;;;;;;24.63;59.62;101027.88;5194345;28;20041;-75
2022/09/04 11:50:13;;;;;;;6.28;2.20;;;;;;;24.89;59.35;101034.47;5208430;28;20028;-75
2022/09/04 11:53:11;;;;;;;5.28;2.22;;;;;;;24.43;59.18;101026.03;5156486;28;20033;-73
2022/09/04 11:56:23;;;;;;;6.70;2.72;;;;;;;24.50;60.34;101029.00;5187392;28;20037;-74
2022/09/04 11:59:39;;;;;;;5.70;2.20;;;;;;;24.44;60.11;101027.72;5212992;28;20017;-75
2022/09/04 12:02:48;;;;;;;5.25;2.30;;;;;;;24.55;58.81;101018.81;5193656;28;20086;-76
2022/09/04 12:05:41;;;;;;;5.78;2.10;;;;;;;24.89;60.18;101023.78;5201293;28;20092;-76
2022/09/04 12:08:14;;;;;;;6.32;2.15;;;;;;;24.93;58.59;101014.47;5195316;28;20032;-76
2022/09/04 12:11:06;;;;;;;3.53;2.03;;;;;;;25.00;59.45;101013.81;5202335;28;20267;-75
2022/09/04 12:13:56;;;;;;;4.20;2.00;;;;;;;25.03;59.11;101020.72;5188687;28;20036;-75
2022/09/04 12:16:41;;;;;;;4.72;2.00;;;;;;;24.99;58.69;101024.66;5189516;28;20056;-75
2022/09/04 12:19:52;;;;;;;3.75;2.00;;;;;;;24.97;58.87;101021.28;5207259;28;20043;-76
2022/09/04 12:22:49;;;;;;;4.13;1.80;;;;;;;25.11;58.10;101024.44;5201782;28;20055;-75
2022/09/04 12:25:41;;;;;;;3.88;1.70;;;;;;;25.04;58.77;101019.75;5203389;28;20690;-75
2022/09/04 12:28:33;;;;;;;3.47;1.95;;;;;;;25.31;58.05;101009.31;5185220;28;20120;-74
2022/09/04 12:31:26;;;;;;;3.83;2.28;;;;;;;25.13;58.01;101006.41;5203178;28;20099;-75
2022/09/04 12:34:18;;;;;;;5.35;2.15;;;;;;;25.15;58.05;101007.09;5203134;28;20037;-75
2022/09/04 12:37:18;;;;;;;4.05;2.33;;;;;;;25.40;59.02;101005.78;5206081;28;20049;-75
2022/09/04 12:40:23;;;;;;;7.00;2.13;;;;;;;25.46;57.95;101014.13;5207719;28;20512;-75
2022/09/04 12:42:56;;;;;;;4.00;2.05;;;;;;;25.30;57.90;101012.97;5191718;28;20536;-75
2022/09/04 12:45:36;;;;;;;3.92;2.13;;;;;;;25.23;58.72;101012.66;5202985;28;20117;-74
2022/09/04 12:48:43;;;;;;;3.78;2.08;;;;;;;25.03;58.55;101015.38;5190327;28;20529;-75
2022/09/04 12:51:25;;;;;;;4.80;2.15;;;;;;;25.28;58.82;101012.28;5197780;28;20104;-75
2022/09/04 12:54:04;;;;;;;6.45;2.60;;;;;;;25.47;58.96;101015.81;5185974;28;20030;-75
2022/09/04 12:56:50;;;;;;;3.55;1.77;;;;;;;25.29;58.25;101014.78;5203805;28;20025;-74
2022/09/04 12:59:21;;;;;;;;;;;;;;;25.53;58.42;101006.38;5189517;28;20514;-76
2022/09/04 13:02:15;;;;;;;3.67;2.13;;;;;;;25.61;58.90;101002.03;5209138;28;19912;-74
2022/09/04 13:04:56;;;;;;;4.55;2.10;;;;;;;25.65;58.25;101016.81;5188059;28;20033;-75
2022/09/04 13:07:52;;;;;;;3.17;1.88;;;;;;;25.57;57.42;101011.34;5214311;23;20129;-78
2022/09/04 13:10:52;;;;;;;2.50;1.77;;;;;;;25.44;58.16;101026.81;5183658;28;20035;-76
2022/09/04 13:13:32;;;;;;;3.28;2.00;;;;;;;25.50;59.07;101022.72;5185400;28;20510;-76
2022/09/04 13:16:12;;;;;;;5.72;2.05;;;;;;;25.47;58.95;101020.34;5177605;28;20179;-75
2022/09/04 13:19:00;;;;;;;3.92;1.88;;;;;;;25.61;58.46;101018.09;5180056;28;20485;-75